Latest Coastal Weather Observations for Burnie Port

IDT60701

Issued at 9:32 am EDT Sunday 1 February 2015 (issued every 10 minutes, with the page automatically refreshed every 10 minutes)

About coastal observations | Map of coastal stations | Coastal observations for TAS | Marine services | Other Formats
Station Details ID: 091344 Name: BURNIE NTC AWS Lat: -41.05 Lon: 145.91 Height: 0.0 m
Data from the previous 72 hours. | See also: Recent months for locations in Tasmania
Date/Time
EDT
Temp

°C
Wind Pressure Rain
since 9am
mm
Weather Cloud Vis
km
Sea
Height
m
Swell
Dir
 
Speed
knots
Gust
knots
hPa Trend Height
m
Period
s
Dir
01/09:30am 15.7 ENE 3 5 1012.5 - - - - - - - - -
01/09:00am 16.1 ENE 1 2 1012.3 - - - - - - - - -
01/08:30am 16.0 SSE 2 4 1011.8 - - - - - - - - -
01/08:00am 15.1 S 5 7 1011.5 - - - - - - - - -
01/07:30am 14.9 SSW 6 9 1011.1 - - - - - - - - -
01/07:00am 14.9 SW 6 9 1010.9 - - - - - - - - -
01/06:30am 15.2 SSW 4 5 1010.7 - - - - - - - - -
01/06:00am 15.4 S 6 7 1010.4 - - - - - - - - -
01/05:30am 15.6 SSW 5 6 1010.1 - - - - - - - - -
01/05:00am 15.8 SSE 6 7 1009.9 - - - - - - - - -
01/04:30am 15.8 SSW 8 12 1009.7 - - - - - - - - -
01/04:00am 16.1 SW 9 12 1009.6 - - - - - - - - -
01/03:30am 16.6 SSW 6 9 1009.7 - - - - - - - - -
01/03:00am 16.7 SSW 8 11 1009.7 - - - - - - - - -
01/02:30am 16.8 SW 7 10 1010.0 - - - - - - - - -
01/02:00am 16.9 SSW 5 7 1010.1 - - - - - - - - -
01/01:30am 17.4 SSW 4 5 1010.2 - - - - - - - - -
01/01:00am 17.9 S 6 7 1010.2 - - - - - - - - -
01/12:30am 18.0 S 4 6 1010.3 - - - - - - - - -
01/12:00am 18.2 SSE 5 6 1010.3 - - - - - - - - -
 
Date/Time
EDT
Temp

°C
Wind Pressure Rain
since 9am
mm
Weather Cloud Vis
km
Sea
Height
m
Swell
Dir
 
Speed
knots
Gust
knots
hPa Trend Height
m
Period
s
Dir
31/11:30pm 18.1 ESE 7 9 1010.4 - - - - - - - - -
31/11:00pm 18.6 ESE 7 9 1010.3 - - - - - - - - -
31/10:30pm 18.9 SSW 9 11 1010.4 - - - - - - - - -
31/10:00pm 19.3 SSW 9 12 1010.1 - - - - - - - - -
31/09:30pm 19.8 SSW 12 16 1009.6 - - - - - - - - -
31/09:00pm 20.2 S 11 15 1009.1 - - - - - - - - -
31/08:30pm 20.7 SSW 9 13 1008.8 - - - - - - - - -
31/08:00pm 21.1 S 13 17 1008.4 - - - - - - - - -
31/07:30pm 21.5 S 8 12 1008.3 - - - - - - - - -
31/07:00pm 18.9 NW 2 4 1008.2 - - - - - - - - -
31/06:30pm 19.0 NW 8 12 1008.1 - - - - - - - - -
31/06:00pm 18.7 NW 8 10 1008.1 - - - - - - - - -
31/05:30pm 19.0 WNW 7 12 1008.2 - - - - - - - - -
31/05:00pm 18.7 NW 9 11 1008.2 - - - - - - - - -
31/04:30pm 18.5 NW 7 8 1008.3 - - - - - - - - -
31/04:00pm 18.6 NW 7 9 1008.4 - - - - - - - - -
31/03:30pm 18.4 NW 8 12 1008.5 - - - - - - - - -
31/03:00pm 18.1 NW 8 10 1008.5 - - - - - - - - -
31/02:30pm 18.2 NW 10 13 1008.7 - - - - - - - - -
31/02:00pm 17.9 NNW 8 9 1008.8 - - - - - - - - -
31/01:30pm 17.7 NNW 9 12 1008.9 - - - - - - - - -
31/01:00pm 18.3 N 10 13 1009.1 - - - - - - - - -
31/12:30pm 18.6 N 11 14 1008.8 - - - - - - - - -
31/12:00pm 18.6 NNE 11 12 1009.1 - - - - - - - - -
31/11:30am 17.9 NNE 10 11 1009.3 - - - - - - - - -
31/11:00am 18.6 N 7 8 1009.3 - - - - - - - - -
31/10:30am 19.4 S 7 11 1009.3 - - - - - - - - -
31/10:00am 19.0 S 10 15 1009.5 - - - - - - - - -
31/09:30am 17.7 S 8 10 1009.9 - - - - - - - - -
31/09:00am 16.6 S 1 3 1010.0 - - - - - - - - -
31/08:30am 14.7 NW 6 7 1009.9 - - - - - - - - -
31/08:00am 15.0 WNW 1 5 1009.9 - - - - - - - - -
31/07:30am 14.4 SW 4 6 1009.7 - - - - - - - - -
31/07:00am 14.1 S 4 6 1009.7 - - - - - - - - -
31/06:30am 14.0 SSW 6 8 1009.6 - - - - - - - - -
31/06:00am 14.1 SSW 7 9 1009.5 - - - - - - - - -
31/05:30am 14.2 S 10 13 1009.3 - - - - - - - - -
31/05:00am 14.3 SSW 8 11 1009.4 - - - - - - - - -
31/04:30am 13.8 SSW 9 14 1009.4 - - - - - - - - -
31/04:00am 14.1 SW 10 14 1009.8 - - - - - - - - -
31/03:30am 14.1 SW 9 12 1009.8 - - - - - - - - -
31/03:00am 14.3 SSW 8 11 1010.1 - - - - - - - - -
31/02:30am 14.3 SSW 8 11 1010.3 - - - - - - - - -
31/02:00am 14.7 SW 8 11 1010.6 - - - - - - - - -
31/01:30am 15.2 SSW 8 11 1010.9 - - - - - - - - -
31/01:00am 15.9 SSW 8 10 1011.3 - - - - - - - - -
31/12:30am 16.1 S 4 6 1011.5 - - - - - - - - -
31/12:00am 15.7 S 6 8 1011.5 - - - - - - - - -
 
Date/Time
EDT
Temp

°C
Wind Pressure Rain
since 9am
mm
Weather Cloud Vis
km
Sea
Height
m
Swell
Dir
 
Speed
knots
Gust
knots
hPa Trend Height
m
Period
s
Dir
30/11:30pm 16.3 S 6 7 1011.7 - - - - - - - - -
30/11:00pm 16.9 SSW 4 6 1011.8 - - - - - - - - -
30/10:30pm 17.3 S 6 8 1011.9 - - - - - - - - -
30/10:00pm 17.0 SSE 5 7 1011.9 - - - - - - - - -
30/09:30pm 17.3 S 5 6 1011.7 - - - - - - - - -
30/09:00pm 17.8 NW 3 3 1011.5 - - - - - - - - -
30/08:30pm 17.8 NW 4 5 1011.4 - - - - - - - - -
30/08:00pm 17.6 NW 5 6 1011.4 - - - - - - - - -
30/07:30pm 17.6 NNW 6 7 1011.6 - - - - - - - - -
30/07:00pm 17.4 NNW 8 9 1011.6 - - - - - - - - -
30/06:30pm 17.2 NW 11 14 1011.2 - - - - - - - - -
30/06:00pm 17.3 NW 12 15 1011.6 - - - - - - - - -
30/05:30pm 17.4 NW 14 16 1011.9 - - - - - - - - -
30/05:00pm 17.2 NW 14 17 1012.3 - - - - - - - - -
30/04:30pm 17.1 NW 13 15 1012.6 - - - - - - - - -
30/04:00pm 17.0 NNW 10 13 1012.9 - - - - - - - - -
30/03:30pm 16.9 NNW 12 14 1013.3 - - - - - - - - -
30/03:00pm 16.8 NNW 10 13 1013.8 - - - - - - - - -
30/02:30pm 16.6 NNW 10 12 1013.9 - - - - - - - - -
30/02:00pm 16.6 NNW 10 11 1014.3 - - - - - - - - -
30/01:30pm 16.5 NNW 11 13 1014.4 - - - - - - - - -
30/01:00pm 17.4 NNW 8 13 1014.5 - - - - - - - - -
30/12:30pm 17.6 NW 6 8 1015.1 - - - - - - - - -
30/12:00pm 16.9 W 4 8 1015.5 - - - - - - - - -
30/11:30am 16.6 SW 4 10 1016.0 - - - - - - - - -
30/11:00am 16.1 SSW 6 10 1016.1 - - - - - - - - -
30/10:30am 16.4 S 8 13 1016.2 - - - - - - - - -
30/10:00am 16.3 SSW 6 10 1016.3 - - - - - - - - -
30/09:30am 16.1 WSW 5 9 1016.5 - - - - - - - - -
30/09:00am 15.3 SW 7 11 1016.7 - - - - - - - - -
30/08:30am 14.9 WSW 5 11 1016.8 - - - - - - - - -
30/08:00am 14.9 S 4 7 1017.0 - - - - - - - - -
30/07:30am 14.7 S 6 9 1017.0 - - - - - - - - -
30/07:00am 14.4 S 8 10 1017.0 - - - - - - - - -
30/06:30am 14.3 S 7 9 1017.0 - - - - - - - - -
30/06:00am 14.4 S 10 12 1017.0 - - - - - - - - -
30/05:30am 14.5 S 9 13 1016.9 - - - - - - - - -
30/05:00am 14.0 S 5 9 1017.1 - - - - - - - - -
30/04:30am 14.0 SSW 8 11 1017.1 - - - - - - - - -
30/04:00am 14.1 SSW 5 9 1017.6 - - - - - - - - -
30/03:30am 14.0 S 7 8 1017.8 - - - - - - - - -
30/03:00am 14.0 S 6 8 1018.1 - - - - - - - - -
30/02:30am 14.1 S 7 9 1018.4 - - - - - - - - -
30/02:00am 14.0 S 7 9 1018.7 - - - - - - - - -
30/01:30am 14.1 S 8 10 1018.9 - - - - - - - - -
30/01:00am 13.9 S 7 8 1019.1 - - - - - - - - -
30/12:30am 14.3 S 8 10 1019.3 - - - - - - - - -
30/12:00am 15.3 SE 12 16 1019.4 - - - - - - - - -
 
Date/Time
EDT
Temp

°C
Wind Pressure Rain
since 9am
mm
Weather Cloud Vis
km
Sea
Height
m
Swell
Dir
 
Speed
knots
Gust
knots
hPa Trend Height
m
Period
s
Dir
29/11:30pm 15.6 E 16 18 1019.6 - - - - - - - - -
29/11:00pm 15.8 E 20 23 1019.8 - - - - - - - - -
29/10:30pm 17.2 E 17 20 1019.7 - - - - - - - - -
29/10:00pm 17.2 SSE 7 11 1019.5 - - - - - - - - -
29/09:30pm 17.3 SSW 2 3 1019.2 - - - - - - - - -
29/09:00pm 17.3 WNW 5 7 1019.1 - - - - - - - - -

Other Formats:

Comma delimited format used in spreadsheet applications
http://www.bom.gov.au/fwo/IDT60701/IDT60701.95963.axf

JavaScript Object Notation format (JSON) in row-major order
http://www.bom.gov.au/fwo/IDT60701/IDT60701.95963.json